Eddyville, KY

5:43 PM CDT on March 30, 2017 (GMT -0500)
The Ridge Eddycreek | | Change Station

Elev 471 ft 37.02 °N, 88.01 °W | Updated 23 seconds ago

Rain
Rain
62.0 °F
Feels Like 62.0 °F
N
8.0
Wind Variable Wind from WSW
Gusts 16.0 mph

Today
High -- | Low -- °F
--% Chance of Precip.
Yesterday
High -- | Low -- °F
Precip. -- in
Pressure 29.56 in
Visibility 10.0 miles
Clouds Mostly Cloudy 10000 ft
Dew Point 59 °F
Humidity 90%
Rainfall 0.00 in
Snow Depth Not available.
6:40 AM 7:13 PM
Waxing Crescent, 11% visible
METAR K5M9 302235Z AUTO 21012G25KT 190V250 10SM BKN100 18/15 A2956 RMK AO2 T01780151
Pressure 29.56 in
Visibility 10.0 miles
Clouds Mostly Cloudy 10000 ft
Dew Point 59 °F
Humidity 90%
Rainfall 0.00 in
Snow Depth Not available.
6:40 AM 7:13 PM
Waxing Crescent, 11% visible
METAR K5M9 302235Z AUTO 21012G25KT 190V250 10SM BKN100 18/15 A2956 RMK AO2 T01780151

Get Your Daily Forecast Email!

Thanks for signing up!

Be on the lookout for a verification email in your inbox.

You'll start receiving severe weather alerts in your inbox..

×

10-Day Weather Forecast

Almanac

Astronomy

Mar. 30, 2017 Rise Set
Actual Time
Civil Twilight
Nautical Twilight
Astronomical Twilight
Moon
Length of Visible Light
Length of Day
Tomorrow will be .
, % of the Moon is Illuminated

Today's Extremes

State Highs State Lows

Community

WunderPhotos

Upload Photos

1,962,540 photos uploaded!

WunderBlog® & News

Nearby

Air Quality

  Air Quality AQ Index Pollutant
Not available.

Snow Depth

Station Depth Elevation

Earthquake Activity

City Distance Mag. Time & Date
Minimum magnitude displayed is 2.5.

Earthquake Activity

City Distance Mag. Time & Date
Minimum magnitude displayed is 2.5.

Coastal Water Temperatures

Place Temperature

Stations

Nearby Weather Stations

Station Location Temp. Windchill Dew Point Humidity Wind Precip. Elev Updated Type
                   

Watches & Warnings

Severe Thunderstorm Watch
Issued: 5:31 PM CDT Mar. 30, 2017 – National Weather Service


Severe Thunderstorm Watch 103 remains valid until 8 PM CDT this
evening for the following areas

In Kentucky this watch includes 10 counties

In western Kentucky

Caldwell Calloway Christian
Hopkins Lyon McLean
Muhlenberg Todd Trigg
Webster

This includes the cities of Cadiz, Calhoun, Dixon, Eddyville,
Elkton, Greenville, Hopkinsville, Madisonville, Murray,
and Princeton.